Home > Products > Valid Products > TAF

000
FTUS44 KBMX 310535
TAFEET
TAF
KEET 310535Z 3106/0106 00000KT P6SM SKC
     FM311200 15002KT P6SM BKN050
     FM311500 25012KT P6SM VCTS BKN025CB
     FM312300 25008KT P6SM VCSH OVC100
     FM010200 00000KT P6SM BKN250=



000
FTUS44 KBMX 310535
TAFANB
TAF
KANB 310535Z 3106/0106 00000KT P6SM SKC
     FM311300 15002KT P6SM BKN050
     FM311600 25012KT P6SM VCTS BKN025CB
     FM312300 25008KT P6SM VCSH OVC100
     FM010200 00000KT P6SM BKN250=



000
FTUS44 KBMX 310535
TAFMGM
TAF
KMGM 310535Z 3106/0106 00000KT P6SM SCT050
      TEMPO 3109/3112 4SM BR SCT010
     FM311500 28008KT P6SM BKN040
     FM311800 29010KT P6SM VCTS OVC025CB
     FM010100 28004KT P6SM BKN100=



000
FTUS44 KBMX 310535
TAFTCL
TAF
KTCL 310535Z 3106/0106 00000KT P6SM SKC
     FM311300 15002KT P6SM BKN050
     FM311500 23010KT P6SM VCTS BKN025CB
     FM312200 25008KT P6SM VCSH OVC100
     FM010200 00000KT P6SM BKN250=



000
FTUS44 KBMX 310535
TAFTOI
TAF
KTOI 310535Z 3106/0106 00000KT 6SM BR BKN050
      TEMPO 3109/3112 2SM BR SCT010
     FM311500 28008KT P6SM BKN040
     FM311900 29010KT P6SM VCTS OVC025CB
     FM010200 28004KT P6SM BKN100=



000
FTUS44 KBMX 310535
TAFBHM
TAF
KBHM 310535Z 3106/0106 00000KT P6SM SKC
     FM311200 15002KT P6SM BKN050
     FM311500 25012KT P6SM VCTS BKN025CB
     FM312300 25008KT P6SM VCSH OVC100
     FM010200 VRB04KT P6SM BKN250=



000
FTUS44 KBMX 310535
TAFEET
TAF
KEET 310535Z 3106/0106 00000KT P6SM SKC
     FM311200 15002KT P6SM BKN050
     FM311500 25012KT P6SM VCTS BKN025CB
     FM312300 25008KT P6SM VCSH OVC100
     FM010200 00000KT P6SM BKN250=



000
FTUS44 KBMX 310535
TAFTCL
TAF
KTCL 310535Z 3106/0106 00000KT P6SM SKC
     FM311300 15002KT P6SM BKN050
     FM311500 23010KT P6SM VCTS BKN025CB
     FM312200 25008KT P6SM VCSH OVC100
     FM010200 00000KT P6SM BKN250=



000
FTUS44 KBMX 310535
TAFANB
TAF
KANB 310535Z 3106/0106 00000KT P6SM SKC
     FM311300 15002KT P6SM BKN050
     FM311600 25012KT P6SM VCTS BKN025CB
     FM312300 25008KT P6SM VCSH OVC100
     FM010200 00000KT P6SM BKN250=



000
FTUS44 KBMX 310535
TAFMGM
TAF
KMGM 310535Z 3106/0106 00000KT P6SM SCT050
      TEMPO 3109/3112 4SM BR SCT010
     FM311500 28008KT P6SM BKN040
     FM311800 29010KT P6SM VCTS OVC025CB
     FM010100 28004KT P6SM BKN100=



000
FTUS44 KBMX 310535
TAFBHM
TAF
KBHM 310535Z 3106/0106 00000KT P6SM SKC
     FM311200 15002KT P6SM BKN050
     FM311500 25012KT P6SM VCTS BKN025CB
     FM312300 25008KT P6SM VCSH OVC100
     FM010200 VRB04KT P6SM BKN250=



000
FTUS44 KBMX 310535
TAFTOI
TAF
KTOI 310535Z 3106/0106 00000KT 6SM BR BKN050
      TEMPO 3109/3112 2SM BR SCT010
     FM311500 28008KT P6SM BKN040
     FM311900 29010KT P6SM VCTS OVC025CB
     FM010200 28004KT P6SM BKN100=



000
FTUS44 KBMX 302342 RRA
TAFMGM
TAF
KMGM 302342Z 3100/3124 00000KT P6SM SCT050
     FM310900 20005KT P6SM BKN045
      TEMPO 3109/3112 2SM BR OVC010
     FM311500 26006KT 4SM BR OVC015
     FM311800 28006KT P6SM OVC025=



000
FTUS44 KBMX 302342 RRA
TAFTCL
TAF
KTCL 302342Z 3100/3124 00000KT P6SM SKC
     FM310900 15002KT P6SM BKN040
     FM311200 23005KT P6SM BKN010
     FM311500 22006KT P6SM VCTS BKN025CB=



000
FTUS44 KBMX 302342 RRA
TAFEET
TAF
KEET 302342Z 3100/3124 00000KT P6SM SKC
     FM311000 15002KT P6SM BKN040
     FM311200 00000KT P6SM BKN010
     FM311500 22005KT P6SM BKN025
     FM311800 26006KT P6SM VCTS BKN025CB=



000
FTUS44 KBMX 302342 RRA
TAFTOI
TAF
KTOI 302342Z 3100/3124 00000KT P6SM BKN045
      TEMPO 3109/3112 2SM BR OVC010
     FM311500 26006KT 4SM BR OVC015
     FM311800 28006KT P6SM OVC025=



000
FTUS44 KBMX 302342 RRA
TAFBHM
TAF
KBHM 302342Z 3100/3124 00000KT P6SM SKC
     FM311100 15002KT P6SM BKN040
     FM311200 22005KT P6SM BKN025
     FM311800 26006KT P6SM VCTS BKN025CB=



000
FTUS44 KBMX 302342 RRA
TAFANB
TAF
KANB 302342Z 3100/3124 00000KT P6SM SKC
     FM311400 12002KT P6SM BKN040
     FM311700 22005KT P6SM VCTS BKN025CB=



000
FTUS44 KBMX 302342 RRA
TAFMGM
TAF
KMGM 302342Z 3100/3124 00000KT P6SM SCT050
     FM310900 20005KT P6SM BKN045
      TEMPO 3109/3112 2SM BR OVC010
     FM311500 26006KT 4SM BR OVC015
     FM311800 28006KT P6SM OVC025=



000
FTUS44 KBMX 302342 RRA
TAFTOI
TAF
KTOI 302342Z 3100/3124 00000KT P6SM BKN045
      TEMPO 3109/3112 2SM BR OVC010
     FM311500 26006KT 4SM BR OVC015
     FM311800 28006KT P6SM OVC025=



000
FTUS44 KBMX 302342 RRA
TAFEET
TAF
KEET 302342Z 3100/3124 00000KT P6SM SKC
     FM311000 15002KT P6SM BKN040
     FM311200 00000KT P6SM BKN010
     FM311500 22005KT P6SM BKN025
     FM311800 26006KT P6SM VCTS BKN025CB=



000
FTUS44 KBMX 302342 RRA
TAFTCL
TAF
KTCL 302342Z 3100/3124 00000KT P6SM SKC
     FM310900 15002KT P6SM BKN040
     FM311200 23005KT P6SM BKN010
     FM311500 22006KT P6SM VCTS BKN025CB=



000
FTUS44 KBMX 302342 RRA
TAFBHM
TAF
KBHM 302342Z 3100/3124 00000KT P6SM SKC
     FM311100 15002KT P6SM BKN040
     FM311200 22005KT P6SM BKN025
     FM311800 26006KT P6SM VCTS BKN025CB=



000
FTUS44 KBMX 302342 RRA
TAFANB
TAF
KANB 302342Z 3100/3124 00000KT P6SM SKC
     FM311400 12002KT P6SM BKN040
     FM311700 22005KT P6SM VCTS BKN025CB=



000
FTUS44 KBMX 302301 AAB
TAFTOI
TAF AMD
KTOI 302301Z 3023/3118 32006KT P6SM SCT025 BKN045
     FM310000 00000KT P6SM BKN045
      TEMPO 3109/3112 2SM BR BKN005
     FM311400 22004KT P6SM BKN040=



000
FTUS44 KBMX 302301 AAB
TAFTOI
TAF AMD
KTOI 302301Z 3023/3118 32006KT P6SM SCT025 BKN045
     FM310000 00000KT P6SM BKN045
      TEMPO 3109/3112 2SM BR BKN005
     FM311400 22004KT P6SM BKN040=



000
FTUS44 KBMX 301911 AAA
TAFTOI
TAF AMD
KTOI 301911Z 3019/3118 29010G16KT P6SM SCT025 BKN045
      TEMPO 3019/3021 BKN025
     FM310000 00000KT P6SM BKN045
      TEMPO 3109/3112 2SM BR BKN005
     FM311400 22004KT P6SM BKN040=



000
FTUS44 KBMX 301908 AAA
TAFMGM
TAF AMD
KMGM 301908Z 3019/3118 27010KT P6SM SCT025 BKN040
      TEMPO 3019/3021 BKN025
     FM302100 30010KT P6SM BKN040
     FM310000 00000KT P6SM SCT050
     FM310900 20005KT P6SM BKN045
      TEMPO 3109/3112 3SM BR=



000
FTUS44 KBMX 301908 AAA
TAFMGM
TAF AMD
KMGM 301908Z 3019/3118 27010KT P6SM SCT025 BKN040
      TEMPO 3019/3021 BKN025
     FM302100 30010KT P6SM BKN040
     FM310000 00000KT P6SM SCT050
     FM310900 20005KT P6SM BKN045
      TEMPO 3109/3112 3SM BR=



000
FTUS44 KBMX 301722
TAFBHM
TAF
KBHM 301722Z 3018/3118 33008KT P6SM SCT035
     FM310000 00000KT P6SM SKC
     FM311100 15002KT P6SM BKN040
     FM311200 22005KT P6SM BKN025=



000
FTUS44 KBMX 301722
TAFTOI
TAF
KTOI 301722Z 3018/3118 25010G16KT P6SM SCT015 BKN025
      TEMPO 3018/3021 BKN015
     FM302200 30008KT P6SM BKN035
     FM310000 00000KT P6SM BKN045
      TEMPO 3109/3112 2SM BR BKN005
     FM311400 22004KT P6SM BKN040=



000
FTUS44 KBMX 301722
TAFMGM
TAF
KMGM 301722Z 3018/3118 27010G16KT P6SM SCT015 BKN025
      TEMPO 3018/3020 BKN015
     FM302100 30010KT P6SM BKN040
     FM310000 00000KT P6SM SCT050
     FM310900 20005KT P6SM BKN045
      TEMPO 3109/3112 3SM BR=



000
FTUS44 KBMX 301722
TAFTCL
TAF
KTCL 301722Z 3018/3118 33007KT P6SM SCT040
     FM310000 00000KT P6SM SKC
     FM311000 15002KT P6SM BKN040
     FM311400 23005KT P6SM BKN025=



000
FTUS44 KBMX 301722
TAFANB
TAF
KANB 301722Z 3018/3118 36009KT P6SM SCT030
      TEMPO 3018/3019 BKN030
     FM310000 00000KT P6SM SKC
     FM311400 12002KT P6SM BKN040
     FM311700 22005KT P6SM BKN025=



000
FTUS44 KBMX 301722
TAFEET
TAF
KEET 301722Z 3018/3118 33008KT P6SM SCT030
      TEMPO 3018/3019 BKN030
     FM310000 00000KT P6SM SKC
     FM311000 15002KT P6SM BKN040
     FM311400 22005KT P6SM BKN025=



000
FTUS44 KBMX 301722
TAFEET
TAF
KEET 301722Z 3018/3118 33008KT P6SM SCT030
      TEMPO 3018/3019 BKN030
     FM310000 00000KT P6SM SKC
     FM311000 15002KT P6SM BKN040
     FM311400 22005KT P6SM BKN025=



000
FTUS44 KBMX 301722
TAFTOI
TAF
KTOI 301722Z 3018/3118 25010G16KT P6SM SCT015 BKN025
      TEMPO 3018/3021 BKN015
     FM302200 30008KT P6SM BKN035
     FM310000 00000KT P6SM BKN045
      TEMPO 3109/3112 2SM BR BKN005
     FM311400 22004KT P6SM BKN040=



000
FTUS44 KBMX 301722
TAFANB
TAF
KANB 301722Z 3018/3118 36009KT P6SM SCT030
      TEMPO 3018/3019 BKN030
     FM310000 00000KT P6SM SKC
     FM311400 12002KT P6SM BKN040
     FM311700 22005KT P6SM BKN025=



000
FTUS44 KBMX 301722
TAFTCL
TAF
KTCL 301722Z 3018/3118 33007KT P6SM SCT040
     FM310000 00000KT P6SM SKC
     FM311000 15002KT P6SM BKN040
     FM311400 23005KT P6SM BKN025=



000
FTUS44 KBMX 301722
TAFMGM
TAF
KMGM 301722Z 3018/3118 27010G16KT P6SM SCT015 BKN025
      TEMPO 3018/3020 BKN015
     FM302100 30010KT P6SM BKN040
     FM310000 00000KT P6SM SCT050
     FM310900 20005KT P6SM BKN045
      TEMPO 3109/3112 3SM BR=



000
FTUS44 KBMX 301722
TAFBHM
TAF
KBHM 301722Z 3018/3118 33008KT P6SM SCT035
     FM310000 00000KT P6SM SKC
     FM311100 15002KT P6SM BKN040
     FM311200 22005KT P6SM BKN025=



000
FTUS44 KBMX 301629 AAC
TAFMGM
TAF AMD
KMGM 301629Z 3016/3112 26007KT P6SM BKN014 OVC025
     FM301800 29010G16KT P6SM SCT015 BKN030
      TEMPO 3018/3020 BKN015
     FM302100 30009KT P6SM BKN045
     FM310000 00000KT P6SM SCT050=



000
FTUS44 KBMX 301629 AAC
TAFMGM
TAF AMD
KMGM 301629Z 3016/3112 26007KT P6SM BKN014 OVC025
     FM301800 29010G16KT P6SM SCT015 BKN030
      TEMPO 3018/3020 BKN015
     FM302100 30009KT P6SM BKN045
     FM310000 00000KT P6SM SCT050=



000
FTUS44 KBMX 301611 AAB
TAFTCL
TAF AMD
KTCL 301611Z 3016/3112 36007KT P6SM BKN040
     FM301730 36008KT P6SM SCT045
     FM310000 00000KT P6SM SKC=



000
FTUS44 KBMX 301611 AAB
TAFTCL
TAF AMD
KTCL 301611Z 3016/3112 36007KT P6SM BKN040
     FM301730 36008KT P6SM SCT045
     FM310000 00000KT P6SM SKC=



000
FTUS44 KBMX 301607 AAD
TAFEET
TAF AMD
KEET 301607Z 3016/3112 31007KT P6SM SCT015 BKN040
      TEMPO 3016/3017 BKN015
     FM301800 32008KT P6SM SCT040
     FM310000 00000KT P6SM SKC=



000
FTUS44 KBMX 301607 AAD
TAFEET
TAF AMD
KEET 301607Z 3016/3112 31007KT P6SM SCT015 BKN040
      TEMPO 3016/3017 BKN015
     FM301800 32008KT P6SM SCT040
     FM310000 00000KT P6SM SKC=



000
FTUS44 KBMX 301604 AAB
TAFBHM
TAF AMD
KBHM 301604Z 3016/3112 33008KT P6SM SCT030
     FM310000 00000KT P6SM SKC=



000
FTUS44 KBMX 301504 AAB
TAFTOI
TAF AMD
KTOI 301504Z 3015/3112 26006KT P6SM SCT012 BKN035
      TEMPO 3015/3017 5SM -SHRA BKN012
     FM301730 29010G16KT P6SM BKN040
     FM310000 00000KT P6SM SCT050=



000
FTUS44 KBMX 301440 AAC
TAFEET
TAF AMD
KEET 301440Z 3015/3112 31007KT 4SM -RA BR BKN005 OVC015
      TEMPO 3016/3017 SCT005 BKN025
     FM301730 32006KT P6SM SCT040
     FM310000 00000KT P6SM SKC=



000
FTUS44 KBMX 301412 AAB
TAFMGM
TAF AMD
KMGM 301412Z 3014/3112 26006KT 5SM -SHRA SCT015 BKN030
      TEMPO 3014/3016 BKN015 OVC030
     FM301700 29010G16KT P6SM BKN040
     FM310000 00000KT P6SM SCT050=



000
FTUS44 KBMX 301406 AAB
TAFANB
TAF AMD
KANB 301406Z 3014/3112 30007KT P6SM BKN015 OVC040
      TEMPO 3014/3016 BKN008 OVC015
     FM301730 30006KT P6SM FEW040
     FM310000 00000KT P6SM SKC=



000
FTUS44 KBMX 301406 AAB
TAFANB
TAF AMD
KANB 301406Z 3014/3112 30007KT P6SM BKN015 OVC040
      TEMPO 3014/3016 BKN008 OVC015
     FM301730 30006KT P6SM FEW040
     FM310000 00000KT P6SM SKC=



000
FTUS44 KBMX 301339 AAB
TAFEET
TAF AMD
KEET 301339Z 3014/3112 31007KT P6SM BKN008 OVC015
      TEMPO 3016/3017 SCT015 BKN035
     FM301700 32006KT P6SM FEW040
     FM310000 00000KT P6SM SKC=



000
FTUS44 KBMX 301336 AAA
TAFBHM
TAF AMD
KBHM 301336Z 3014/3112 30008KT P6SM BKN014 OVC035
      TEMPO 3015/3017 SCT015 BKN040
     FM301700 34006KT P6SM FEW040
     FM310000 00000KT P6SM SKC=



000
FTUS44 KBMX 301336 AAA
TAFBHM
TAF AMD
KBHM 301336Z 3014/3112 30008KT P6SM BKN014 OVC035
      TEMPO 3015/3017 SCT015 BKN040
     FM301700 34006KT P6SM FEW040
     FM310000 00000KT P6SM SKC=



000
FTUS44 KBMX 301311 AAA
TAFTOI
TAF AMD
KTOI 301311Z 3013/3112 25006KT P6SM VCSH BKN008 OVC020
     FM301400 26006KT 4SM -SHRA VCTS SCT005 OVC012CB
      TEMPO 3014/3016 2SM +TSRA BR BKN005 OVC012CB
     FM301700 29010G16KT P6SM BKN040
     FM310000 00000KT P6SM SCT050=



000
FTUS44 KBMX 301309 AAA
TAFMGM
TAF AMD
KMGM 301309Z 3013/3112 26006KT 5SM -SHRA VCTS SCT005 OVC012CB
      TEMPO 3013/3015 2SM +TSRA BR BKN005 OVC012CB
     FM301600 29010G16KT P6SM BKN040
     FM310000 00000KT P6SM SCT050=



000
FTUS44 KBMX 301309 AAA
TAFMGM
TAF AMD
KMGM 301309Z 3013/3112 26006KT 5SM -SHRA VCTS SCT005 OVC012CB
      TEMPO 3013/3015 2SM +TSRA BR BKN005 OVC012CB
     FM301600 29010G16KT P6SM BKN040
     FM310000 00000KT P6SM SCT050=



000
FTUS44 KBMX 301304 AAA
TAFTCL
TAF AMD
KTCL 301304Z 3013/3112 29008KT P6SM BKN015 OVC020
      TEMPO 3014/3016 SCT015 BKN035
     FM301600 30006KT P6SM FEW040
     FM310000 00000KT P6SM SKC=



000
FTUS44 KBMX 301258 AAA
TAFANB
TAF AMD
KANB 301258Z 3013/3112 30007KT P6SM BKN040
     FM301700 30006KT P6SM FEW040
     FM310000 00000KT P6SM SKC=



000
FTUS44 KBMX 301253 AAA
TAFEET
TAF AMD
KEET 301253Z 3013/3112 22006KT P6SM OVC006
     FM301330 31007KT P6SM BKN040
     FM301700 32006KT P6SM FEW040
     FM310000 00000KT P6SM SKC=



000
FTUS44 KBMX 301253 AAA
TAFEET
TAF AMD
KEET 301253Z 3013/3112 22006KT P6SM OVC006
     FM301330 31007KT P6SM BKN040
     FM301700 32006KT P6SM FEW040
     FM310000 00000KT P6SM SKC=



000
FTUS44 KBMX 301128
TAFTCL
TAF
KTCL 301128Z 3012/3112 31008KT P6SM OVC035
     FM301700 30006KT P6SM FEW040
     FM310000 00000KT P6SM SKC=



000
FTUS44 KBMX 301128
TAFMGM
TAF
KMGM 301128Z 3012/3112 20006KT P6SM BKN040
     FM301300 26006KT 4SM -SHRA BKN025 OVC035
      TEMPO 3013/3015 2SM +TSRA BR OVC020CB
     FM301600 29010G16KT P6SM BKN040
     FM310000 00000KT P6SM SCT050=



000
FTUS44 KBMX 301128
TAFTOI
TAF
KTOI 301128Z 3012/3112 20006KT P6SM BKN040
     FM301400 26006KT 4SM -SHRA BKN025 OVC035
      TEMPO 3014/3016 2SM +TSRA BR OVC020CB
     FM301700 29010G16KT P6SM BKN040
     FM310000 00000KT P6SM SCT050=



000
FTUS44 KBMX 301128
TAFEET
TAF
KEET 301128Z 3012/3112 20006KT 4SM -SHRA VCTS OVC015CB
     FM301300 31007KT P6SM OVC035
     FM301800 32006KT P6SM FEW040
     FM310000 00000KT P6SM SKC=



000
FTUS44 KBMX 301128
TAFTOI
TAF
KTOI 301128Z 3012/3112 20006KT P6SM BKN040
     FM301400 26006KT 4SM -SHRA BKN025 OVC035
      TEMPO 3014/3016 2SM +TSRA BR OVC020CB
     FM301700 29010G16KT P6SM BKN040
     FM310000 00000KT P6SM SCT050=



000
FTUS44 KBMX 301128
TAFBHM
TAF
KBHM 301128Z 3012/3112 32008KT P6SM OVC035
     FM301700 34006KT P6SM FEW040
     FM310000 00000KT P6SM SKC=



000
FTUS44 KBMX 301128
TAFANB
TAF
KANB 301128Z 3012/3112 24006KT 2SM -SHRA VCTS OVC015CB
     FM301330 30007KT P6SM OVC035
     FM301800 30006KT P6SM FEW040
     FM310000 00000KT P6SM SKC=



000
FTUS44 KBMX 301128
TAFANB
TAF
KANB 301128Z 3012/3112 24006KT 2SM -SHRA VCTS OVC015CB
     FM301330 30007KT P6SM OVC035
     FM301800 30006KT P6SM FEW040
     FM310000 00000KT P6SM SKC=



000
FTUS44 KBMX 301128
TAFEET
TAF
KEET 301128Z 3012/3112 20006KT 4SM -SHRA VCTS OVC015CB
     FM301300 31007KT P6SM OVC035
     FM301800 32006KT P6SM FEW040
     FM310000 00000KT P6SM SKC=



000
FTUS44 KBMX 301128
TAFBHM
TAF
KBHM 301128Z 3012/3112 32008KT P6SM OVC035
     FM301700 34006KT P6SM FEW040
     FM310000 00000KT P6SM SKC=



000
FTUS44 KBMX 301128
TAFTCL
TAF
KTCL 301128Z 3012/3112 31008KT P6SM OVC035
     FM301700 30006KT P6SM FEW040
     FM310000 00000KT P6SM SKC=



000
FTUS44 KBMX 301128
TAFMGM
TAF
KMGM 301128Z 3012/3112 20006KT P6SM BKN040
     FM301300 26006KT 4SM -SHRA BKN025 OVC035
      TEMPO 3013/3015 2SM +TSRA BR OVC020CB
     FM301600 29010G16KT P6SM BKN040
     FM310000 00000KT P6SM SCT050=



000
FTUS44 KBMX 301033 AAB
TAFTCL
TAF AMD
KTCL 301033Z 3011/3106 20008G18KT 4SM -RA VCTS OVC015CB
      TEMPO 3011/3013 1SM +TSRA BR
     FM301300 34007KT P6SM OVC015
     FM301800 30006KT P6SM FEW250=



000
FTUS44 KBMX 301033 AAB
TAFTCL
TAF AMD
KTCL 301033Z 3011/3106 20008G18KT 4SM -RA VCTS OVC015CB
      TEMPO 3011/3013 1SM +TSRA BR
     FM301300 34007KT P6SM OVC015
     FM301800 30006KT P6SM FEW250=



000
FTUS44 KBMX 300857 AAA
TAFTCL
TAF AMD
KTCL 300857Z 3009/3106 18008G18KT P6SM OVC015
     FM301100 20008G18KT 4SM -RA VCTS OVC005CB
      TEMPO 3011/3013 1SM +TSRA BR
     FM301300 34007KT P6SM OVC015
     FM301800 30006KT P6SM FEW250=



000
FTUS44 KBMX 300857 AAA
TAFTCL
TAF AMD
KTCL 300857Z 3009/3106 18008G18KT P6SM OVC015
     FM301100 20008G18KT 4SM -RA VCTS OVC005CB
      TEMPO 3011/3013 1SM +TSRA BR
     FM301300 34007KT P6SM OVC015
     FM301800 30006KT P6SM FEW250=



000
FTUS44 KBMX 300854 AAB
TAFANB
TAF AMD
KANB 300854Z 3009/3106 23007KT P6SM OVC015
     FM301100 23006KT 4SM -RA VCTS OVC005CB
      TEMPO 3011/3013 1SM +TSRA BR
     FM301400 27006KT P6SM OVC015
     FM301800 31006KT P6SM SCT250=



000
FTUS44 KBMX 300853 AAB
TAFEET
TAF AMD
KEET 300853Z 3009/3106 18007KT P6SM OVC015
     FM301100 20006KT 4SM -SHRA VCTS OVC005CB
      TEMPO 3011/3013 1SM +TSRA BR
     FM301400 30005KT P6SM OVC015
     FM301900 32006KT P6SM FEW250=



000
FTUS44 KBMX 300852 AAA
TAFBHM
TAF AMD
KBHM 300852Z 3009/3106 21008G18KT P6SM OVC015
     FM301000 23007KT 4SM -SHRA VCTS OVC005CB
      TEMPO 3010/3012 1SM +TSRA BR
     FM301300 32008KT P6SM OVC020
     FM301700 34006KT P6SM SCT250=



000
FTUS44 KBMX 300658 AAA
TAFANB
TAF AMD
KANB 300658Z 3007/3106 23006KT P6SM OVC025
     FM300800 16006KT P6SM OVC015
     FM301000 20006KT 4SM -RA VCTS OVC005CB
     FM301400 27006KT P6SM OVC015
     FM301800 31006KT P6SM SCT250=



000
FTUS44 KBMX 300658 AAA
TAFANB
TAF AMD
KANB 300658Z 3007/3106 23006KT P6SM OVC025
     FM300800 16006KT P6SM OVC015
     FM301000 20006KT 4SM -RA VCTS OVC005CB
     FM301400 27006KT P6SM OVC015
     FM301800 31006KT P6SM SCT250=



000
FTUS44 KBMX 300612 AAA
TAFEET
TAF AMD
KEET 300612Z 3006/3106 18007KT P6SM OVC015
     FM301100 20006KT 4SM -RA VCTS OVC005CB
     FM301400 30005KT P6SM OVC015
     FM301900 32006KT P6SM FEW250=



000
FTUS44 KBMX 300612 AAA
TAFEET
TAF AMD
KEET 300612Z 3006/3106 18007KT P6SM OVC015
     FM301100 20006KT 4SM -RA VCTS OVC005CB
     FM301400 30005KT P6SM OVC015
     FM301900 32006KT P6SM FEW250=



000
FTUS44 KBMX 300532
TAFEET
TAF
KEET 300532Z 3006/3106 17007KT P6SM SCT035
     FM300700 16006KT P6SM OVC015
     FM301100 20006KT 4SM -RA VCTS OVC005CB
     FM301400 30005KT P6SM OVC015
     FM301900 32006KT P6SM FEW250=



000
FTUS44 KBMX 300532
TAFMGM
TAF
KMGM 300532Z 3006/3106 19006KT P6SM SKC
     FM300900 20006KT P6SM OVC020
     FM301330 22006KT 6SM -SHRA OVC015
     FM301800 29010G16KT P6SM BKN050
     FM302200 30008KT P6SM SCT250=



000
FTUS44 KBMX 300532
TAFANB
TAF
KANB 300532Z 3006/3106 00000KT P6SM SCT035
     FM300800 16006KT P6SM OVC015
     FM301000 20006KT 4SM -RA VCTS OVC005CB
     FM301400 27006KT P6SM OVC015
     FM301800 31006KT P6SM SCT250=



000
FTUS44 KBMX 300532
TAFBHM
TAF
KBHM 300532Z 3006/3106 18007KT P6SM SCT060
     FM300700 06007KT P6SM OVC015
     FM301000 23007KT 4SM -RA VCTS OVC005CB
     FM301300 32008KT P6SM OVC020
     FM301700 34006KT P6SM SCT250=



000
FTUS44 KBMX 300532
TAFTCL
TAF
KTCL 300532Z 3006/3106 18009KT P6SM BKN022
     FM300700 16006KT P6SM OVC015
     FM301000 20006KT 4SM -RA VCTS OVC005CB
     FM301300 34007KT P6SM OVC015
     FM301800 30006KT P6SM FEW250=



000
FTUS44 KBMX 300532
TAFTOI
TAF
KTOI 300532Z 3006/3106 19006KT P6SM SKC
     FM300900 20006KT P6SM OVC025
     FM301500 22006KT 6SM -SHRA BKN020
     FM301800 29012G19KT P6SM BKN050
     FM302300 30007KT P6SM BKN250=



000
FTUS44 KBMX 300532
TAFTCL
TAF
KTCL 300532Z 3006/3106 18009KT P6SM BKN022
     FM300700 16006KT P6SM OVC015
     FM301000 20006KT 4SM -RA VCTS OVC005CB
     FM301300 34007KT P6SM OVC015
     FM301800 30006KT P6SM FEW250=



000
FTUS44 KBMX 300532
TAFEET
TAF
KEET 300532Z 3006/3106 17007KT P6SM SCT035
     FM300700 16006KT P6SM OVC015
     FM301100 20006KT 4SM -RA VCTS OVC005CB
     FM301400 30005KT P6SM OVC015
     FM301900 32006KT P6SM FEW250=



000
FTUS44 KBMX 300532
TAFTOI
TAF
KTOI 300532Z 3006/3106 19006KT P6SM SKC
     FM300900 20006KT P6SM OVC025
     FM301500 22006KT 6SM -SHRA BKN020
     FM301800 29012G19KT P6SM BKN050
     FM302300 30007KT P6SM BKN250=



000
FTUS44 KBMX 300532
TAFBHM
TAF
KBHM 300532Z 3006/3106 18007KT P6SM SCT060
     FM300700 06007KT P6SM OVC015
     FM301000 23007KT 4SM -RA VCTS OVC005CB
     FM301300 32008KT P6SM OVC020
     FM301700 34006KT P6SM SCT250=



000
FTUS44 KBMX 300532
TAFANB
TAF
KANB 300532Z 3006/3106 00000KT P6SM SCT035
     FM300800 16006KT P6SM OVC015
     FM301000 20006KT 4SM -RA VCTS OVC005CB
     FM301400 27006KT P6SM OVC015
     FM301800 31006KT P6SM SCT250=



000
FTUS44 KBMX 300532
TAFMGM
TAF
KMGM 300532Z 3006/3106 19006KT P6SM SKC
     FM300900 20006KT P6SM OVC020
     FM301330 22006KT 6SM -SHRA OVC015
     FM301800 29010G16KT P6SM BKN050
     FM302200 30008KT P6SM SCT250=



000
FTUS44 KBMX 292336
TAFMGM
TAF
KMGM 292336Z 3000/3024 17006KT P6SM SKC
     FM300800 20006KT P6SM OVC015
     FM301200 22006KT 5SM -DZ VCSH OVC010
     FM301800 29010G16KT P6SM BKN050=



000
FTUS44 KBMX 292336
TAFTCL
TAF
KTCL 292336Z 3000/3024 19009KT P6SM SKC
     FM300600 16006KT P6SM OVC015
     FM301000 20006KT 4SM -RA OVC005
     FM301100 22006KT 3SM RA VCTS OVC005CB
     FM301300 34007KT P6SM OVC015=



000
FTUS44 KBMX 292336
TAFEET
TAF
KEET 292336Z 3000/3024 17009KT P6SM SKC
     FM300700 16006KT P6SM OVC015
     FM301100 20006KT 4SM -RA OVC005
     FM301200 22006KT 3SM RA VCTS OVC005CB
     FM301400 30005KT P6SM OVC015=



000
FTUS44 KBMX 292336
TAFBHM
TAF
KBHM 292336Z 3000/3024 16008KT P6SM SKC
     FM300600 06007KT P6SM OVC015
     FM300900 23007KT 4SM -RA OVC005
     FM301000 22007KT 3SM RA VCTS OVC005CB
     FM301300 32008KT P6SM OVC025=



000
FTUS44 KBMX 292336
TAFANB
TAF
KANB 292336Z 3000/3024 19004KT P6SM BKN050
     FM300600 16006KT P6SM OVC015
     FM301000 20006KT 4SM -RA OVC005
     FM301100 22006KT 3SM RA VCTS OVC005CB
     FM301400 27006KT P6SM OVC015=



000
FTUS44 KBMX 292336
TAFTOI
TAF
KTOI 292336Z 3000/3024 20008KT P6SM SKC
     FM300900 20006KT P6SM OVC015
     FM301300 22006KT 5SM -DZ VCSH OVC010
     FM301800 29012G19KT P6SM BKN050=



000
FTUS44 KBMX 292336
TAFBHM
TAF
KBHM 292336Z 3000/3024 16008KT P6SM SKC
     FM300600 06007KT P6SM OVC015
     FM300900 23007KT 4SM -RA OVC005
     FM301000 22007KT 3SM RA VCTS OVC005CB
     FM301300 32008KT P6SM OVC025=



000
FTUS44 KBMX 292336
TAFEET
TAF
KEET 292336Z 3000/3024 17009KT P6SM SKC
     FM300700 16006KT P6SM OVC015
     FM301100 20006KT 4SM -RA OVC005
     FM301200 22006KT 3SM RA VCTS OVC005CB
     FM301400 30005KT P6SM OVC015=



000
FTUS44 KBMX 292336
TAFTCL
TAF
KTCL 292336Z 3000/3024 19009KT P6SM SKC
     FM300600 16006KT P6SM OVC015
     FM301000 20006KT 4SM -RA OVC005
     FM301100 22006KT 3SM RA VCTS OVC005CB
     FM301300 34007KT P6SM OVC015=



000
FTUS44 KBMX 292336
TAFMGM
TAF
KMGM 292336Z 3000/3024 17006KT P6SM SKC
     FM300800 20006KT P6SM OVC015
     FM301200 22006KT 5SM -DZ VCSH OVC010
     FM301800 29010G16KT P6SM BKN050=



000
FTUS44 KBMX 292336
TAFANB
TAF
KANB 292336Z 3000/3024 19004KT P6SM BKN050
     FM300600 16006KT P6SM OVC015
     FM301000 20006KT 4SM -RA OVC005
     FM301100 22006KT 3SM RA VCTS OVC005CB
     FM301400 27006KT P6SM OVC015=



000
FTUS44 KBMX 292336
TAFTOI
TAF
KTOI 292336Z 3000/3024 20008KT P6SM SKC
     FM300900 20006KT P6SM OVC015
     FM301300 22006KT 5SM -DZ VCSH OVC010
     FM301800 29012G19KT P6SM BKN050=



000
FTUS44 KBMX 291720
TAFBHM
TAF
KBHM 291720Z 2918/3018 17008KT P6SM BKN035
     FM300300 16007KT P6SM OVC015
     FM300600 20007KT 4SM -RA OVC005
     FM301000 22007KT 3SM RA VCTS OVC005CB=



000
FTUS44 KBMX 291720
TAFTCL
TAF
KTCL 291720Z 2918/3018 17007KT P6SM BKN035
     FM300200 16006KT P6SM OVC015
     FM300500 20006KT 4SM -RA OVC005
     FM301000 22006KT 3SM RA VCTS OVC005CB=



000
FTUS44 KBMX 291720
TAFEET
TAF
KEET 291720Z 2918/3018 17007KT P6SM BKN035
     FM300500 16006KT P6SM OVC015
     FM300800 20006KT 4SM -RA OVC005
     FM301200 22006KT 3SM RA VCTS OVC005CB=



000
FTUS44 KBMX 291720
TAFMGM
TAF
KMGM 291720Z 2918/3018 15007KT P6SM BKN040
     FM300800 20006KT P6SM OVC015
     FM301200 22006KT 5SM -DZ VCSH OVC010=



000
FTUS44 KBMX 291720
TAFBHM
TAF
KBHM 291720Z 2918/3018 17008KT P6SM BKN035
     FM300300 16007KT P6SM OVC015
     FM300600 20007KT 4SM -RA OVC005
     FM301000 22007KT 3SM RA VCTS OVC005CB=



000
FTUS44 KBMX 291720
TAFTOI
TAF
KTOI 291720Z 2918/3018 15007KT P6SM BKN040
     FM300900 20006KT P6SM OVC015
     FM301300 22006KT 5SM -DZ VCSH OVC010=



000
FTUS44 KBMX 291720
TAFMGM
TAF
KMGM 291720Z 2918/3018 15007KT P6SM BKN040
     FM300800 20006KT P6SM OVC015
     FM301200 22006KT 5SM -DZ VCSH OVC010=



000
FTUS44 KBMX 291720
TAFTCL
TAF
KTCL 291720Z 2918/3018 17007KT P6SM BKN035
     FM300200 16006KT P6SM OVC015
     FM300500 20006KT 4SM -RA OVC005
     FM301000 22006KT 3SM RA VCTS OVC005CB=



000
FTUS44 KBMX 291720
TAFEET
TAF
KEET 291720Z 2918/3018 17007KT P6SM BKN035
     FM300500 16006KT P6SM OVC015
     FM300800 20006KT 4SM -RA OVC005
     FM301200 22006KT 3SM RA VCTS OVC005CB=



000
FTUS44 KBMX 291720
TAFANB
TAF
KANB 291720Z 2918/3018 17007KT P6SM SKC
     FM292200 17007KT P6SM BKN035
     FM300600 16006KT P6SM OVC015
     FM300900 20006KT 4SM -RA OVC005
     FM301300 22006KT 3SM RA VCTS OVC005CB=



000
FTUS44 KBMX 291720
TAFTOI
TAF
KTOI 291720Z 2918/3018 15007KT P6SM BKN040
     FM300900 20006KT P6SM OVC015
     FM301300 22006KT 5SM -DZ VCSH OVC010=



000
FTUS44 KBMX 291720
TAFANB
TAF
KANB 291720Z 2918/3018 17007KT P6SM SKC
     FM292200 17007KT P6SM BKN035
     FM300600 16006KT P6SM OVC015
     FM300900 20006KT 4SM -RA OVC005
     FM301300 22006KT 3SM RA VCTS OVC005CB=



000
FTUS44 KBMX 291132
TAFBHM
TAF
KBHM 291132Z 2912/3012 07003KT P6SM SCT080
     FM291600 16007KT P6SM BKN060
     FM292200 18008KT P6SM SCT040
     FM301000 20009KT 3SM TSRA BR OVC030CB=



000
FTUS44 KBMX 291132
TAFTCL
TAF
KTCL 291132Z 2912/3012 15007KT P6SM BKN060
     FM291900 17008KT P6SM SCT040
     FM300600 20007KT P6SM BKN030=



000
FTUS44 KBMX 291132
TAFMGM
TAF
KMGM 291132Z 2912/3012 14007KT P6SM BKN060
     FM292200 16005KT P6SM SCT040=



000
FTUS44 KBMX 291132
TAFEET
TAF
KEET 291132Z 2912/3012 VRB03KT P6SM SCT080
     FM291600 15006KT P6SM BKN060
     FM292200 16007KT P6SM SCT040
     FM301000 20007KT 3SM TSRA BR OVC030CB=



000
FTUS44 KBMX 291132
TAFANB
TAF
KANB 291132Z 2912/3012 00000KT P6SM SKC
     FM291400 09005KT P6SM SKC
     FM292000 17007KT P6SM BKN060
     FM301000 23007KT 3SM TSRA BR OVC030CB=



000
FTUS44 KBMX 291132
TAFTOI
TAF
KTOI 291132Z 2912/3012 14006KT P6SM BKN060
     FM292200 17003KT P6SM SCT040=



000
FTUS44 KBMX 291132
TAFTOI
TAF
KTOI 291132Z 2912/3012 14006KT P6SM BKN060
     FM292200 17003KT P6SM SCT040=



000
FTUS44 KBMX 291132
TAFANB
TAF
KANB 291132Z 2912/3012 00000KT P6SM SKC
     FM291400 09005KT P6SM SKC
     FM292000 17007KT P6SM BKN060
     FM301000 23007KT 3SM TSRA BR OVC030CB=



000
FTUS44 KBMX 291132
TAFTCL
TAF
KTCL 291132Z 2912/3012 15007KT P6SM BKN060
     FM291900 17008KT P6SM SCT040
     FM300600 20007KT P6SM BKN030=



000
FTUS44 KBMX 291132
TAFMGM
TAF
KMGM 291132Z 2912/3012 14007KT P6SM BKN060
     FM292200 16005KT P6SM SCT040=



000
FTUS44 KBMX 291132
TAFBHM
TAF
KBHM 291132Z 2912/3012 07003KT P6SM SCT080
     FM291600 16007KT P6SM BKN060
     FM292200 18008KT P6SM SCT040
     FM301000 20009KT 3SM TSRA BR OVC030CB=



000
FTUS44 KBMX 291132
TAFEET
TAF
KEET 291132Z 2912/3012 VRB03KT P6SM SCT080
     FM291600 15006KT P6SM BKN060
     FM292200 16007KT P6SM SCT040
     FM301000 20007KT 3SM TSRA BR OVC030CB=



000
FTUS44 KBMX 290538
TAFANB
TAF
KANB 290538Z 2906/3006 00000KT P6SM SKC
     FM291400 09005KT P6SM SKC
     FM292000 17007KT P6SM BKN060=



000
FTUS44 KBMX 290538
TAFTCL
TAF
KTCL 290538Z 2906/3006 VRB03KT P6SM BKN080
     FM291500 16008KT P6SM BKN080=



000
FTUS44 KBMX 290538
TAFTOI
TAF
KTOI 290538Z 2906/3006 00000KT P6SM BKN080
     FM291500 14007KT P6SM BKN080=



000
FTUS44 KBMX 290538
TAFMGM
TAF
KMGM 290538Z 2906/3006 VRB03KT P6SM BKN080
     FM291500 14007KT P6SM BKN070=



000
FTUS44 KBMX 290538
TAFBHM
TAF
KBHM 290538Z 2906/3006 00000KT P6SM SCT080
     FM291600 16007KT P6SM BKN060=



000
FTUS44 KBMX 290538
TAFEET
TAF
KEET 290538Z 2906/3006 00000KT P6SM SCT080
     FM291600 16006KT P6SM BKN060=



000
FTUS44 KBMX 290538
TAFMGM
TAF
KMGM 290538Z 2906/3006 VRB03KT P6SM BKN080
     FM291500 14007KT P6SM BKN070=



000
FTUS44 KBMX 290538
TAFTOI
TAF
KTOI 290538Z 2906/3006 00000KT P6SM BKN080
     FM291500 14007KT P6SM BKN080=



000
FTUS44 KBMX 290538
TAFBHM
TAF
KBHM 290538Z 2906/3006 00000KT P6SM SCT080
     FM291600 16007KT P6SM BKN060=



000
FTUS44 KBMX 290538
TAFTCL
TAF
KTCL 290538Z 2906/3006 VRB03KT P6SM BKN080
     FM291500 16008KT P6SM BKN080=



000
FTUS44 KBMX 290538
TAFEET
TAF
KEET 290538Z 2906/3006 00000KT P6SM SCT080
     FM291600 16006KT P6SM BKN060=



000
FTUS44 KBMX 290538
TAFANB
TAF
KANB 290538Z 2906/3006 00000KT P6SM SKC
     FM291400 09005KT P6SM SKC
     FM292000 17007KT P6SM BKN060=



000
FTUS44 KBMX 282329
TAFTOI
TAF
KTOI 282329Z 2900/2924 32005KT P6SM BKN080
     FM290300 00000KT P6SM FEW080
     FM291500 14006KT P6SM SCT260=



000
FTUS44 KBMX 282329
TAFBHM
TAF
KBHM 282329Z 2900/2924 32005KT P6SM BKN070
     FM290300 00000KT P6SM FEW070
     FM291500 15006KT P6SM SCT250=



000
FTUS44 KBMX 282329
TAFANB
TAF
KANB 282329Z 2900/2924 31004KT P6SM BKN100
     FM290200 00000KT P6SM FEW120
     FM291300 09005KT P6SM SCT250
     FM291700 15006KT P6SM SCT250=



000
FTUS44 KBMX 282329
TAFTCL
TAF
KTCL 282329Z 2900/2924 32005KT P6SM BKN070
     FM290300 00000KT P6SM FEW070
     FM291500 15006KT P6SM SCT250=



000
FTUS44 KBMX 282329
TAFEET
TAF
KEET 282329Z 2900/2924 32004KT P6SM BKN070
     FM290300 00000KT P6SM FEW070
     FM291500 14006KT P6SM SCT250=



000
FTUS44 KBMX 282329
TAFMGM
TAF
KMGM 282329Z 2900/2924 30005KT P6SM BKN080
     FM290300 00000KT P6SM FEW080
     FM291500 14006KT P6SM SCT250=



000
FTUS44 KBMX 282329
TAFEET
TAF
KEET 282329Z 2900/2924 32004KT P6SM BKN070
     FM290300 00000KT P6SM FEW070
     FM291500 14006KT P6SM SCT250=



000
FTUS44 KBMX 282329
TAFTCL
TAF
KTCL 282329Z 2900/2924 32005KT P6SM BKN070
     FM290300 00000KT P6SM FEW070
     FM291500 15006KT P6SM SCT250=



000
FTUS44 KBMX 282329
TAFANB
TAF
KANB 282329Z 2900/2924 31004KT P6SM BKN100
     FM290200 00000KT P6SM FEW120
     FM291300 09005KT P6SM SCT250
     FM291700 15006KT P6SM SCT250=



000
FTUS44 KBMX 282329
TAFMGM
TAF
KMGM 282329Z 2900/2924 30005KT P6SM BKN080
     FM290300 00000KT P6SM FEW080
     FM291500 14006KT P6SM SCT250=



000
FTUS44 KBMX 282329
TAFBHM
TAF
KBHM 282329Z 2900/2924 32005KT P6SM BKN070
     FM290300 00000KT P6SM FEW070
     FM291500 15006KT P6SM SCT250=



000
FTUS44 KBMX 282329
TAFTOI
TAF
KTOI 282329Z 2900/2924 32005KT P6SM BKN080
     FM290300 00000KT P6SM FEW080
     FM291500 14006KT P6SM SCT260=



000
FTUS44 KBMX 281720
TAFTOI
TAF
KTOI 281720Z 2818/2918 32010KT P6SM BKN080
     FM291100 00000KT P6SM SCT050=



000
FTUS44 KBMX 281720
TAFTCL
TAF
KTCL 281720Z 2818/2918 33007KT P6SM BKN070
     FM290600 00000KT P6SM SCT050=



000
FTUS44 KBMX 281720
TAFBHM
TAF
KBHM 281720Z 2818/2918 01008KT P6SM BKN070
     FM290300 00000KT P6SM FEW050=



000
FTUS44 KBMX 281720
TAFANB
TAF
KANB 281720Z 2818/2918 33007KT P6SM BKN070
     FM290200 00000KT P6SM FEW050=



000
FTUS44 KBMX 281720
TAFMGM
TAF
KMGM 281720Z 2818/2918 32011KT P6SM BKN080
     FM290900 00000KT P6SM SCT050=



000
FTUS44 KBMX 281720
TAFEET
TAF
KEET 281720Z 2818/2918 34006KT P6SM BKN070
     FM290300 00000KT P6SM SCT050=



000
FTUS44 KBMX 281141
TAFEET
TAF
KEET 281141Z 2812/2912 32005KT P6SM SCT100
     FM281800 32005KT P6SM BKN080
     FM290100 00000KT P6SM SKC=



000
FTUS44 KBMX 281141
TAFBHM
TAF
KBHM 281141Z 2812/2912 33007KT P6SM SCT100
     FM281800 32007KT P6SM BKN080
     FM290100 00000KT P6SM SKC=



000
FTUS44 KBMX 281141
TAFANB
TAF
KANB 281141Z 2812/2912 30006KT P6SM FEW100
     FM290100 00000KT P6SM SKC=



000
FTUS44 KBMX 281141
TAFTCL
TAF
KTCL 281141Z 2812/2912 34004KT P6SM FEW080
     FM281700 34006KT P6SM BKN060
     FM290100 00000KT P6SM SKC=



000
FTUS44 KBMX 281141
TAFTOI
TAF
KTOI 281141Z 2812/2912 32007KT P6SM SKC
     FM282100 32008KT P6SM BKN060
     FM290400 00000KT P6SM SKC=



000
FTUS44 KBMX 281141
TAFMGM
TAF
KMGM 281141Z 2812/2912 32004KT P6SM SKC
     FM281800 32008KT P6SM BKN060
     FM290300 00000KT P6SM SKC=



000
FTUS44 KBMX 281141
TAFANB
TAF
KANB 281141Z 2812/2912 30006KT P6SM FEW100
     FM290100 00000KT P6SM SKC=



000
FTUS44 KBMX 281141
TAFBHM
TAF
KBHM 281141Z 2812/2912 33007KT P6SM SCT100
     FM281800 32007KT P6SM BKN080
     FM290100 00000KT P6SM SKC=



000
FTUS44 KBMX 281141
TAFEET
TAF
KEET 281141Z 2812/2912 32005KT P6SM SCT100
     FM281800 32005KT P6SM BKN080
     FM290100 00000KT P6SM SKC=



000
FTUS44 KBMX 281141
TAFTOI
TAF
KTOI 281141Z 2812/2912 32007KT P6SM SKC
     FM282100 32008KT P6SM BKN060
     FM290400 00000KT P6SM SKC=



000
FTUS44 KBMX 281141
TAFTCL
TAF
KTCL 281141Z 2812/2912 34004KT P6SM FEW080
     FM281700 34006KT P6SM BKN060
     FM290100 00000KT P6SM SKC=



000
FTUS44 KBMX 281141
TAFMGM
TAF
KMGM 281141Z 2812/2912 32004KT P6SM SKC
     FM281800 32008KT P6SM BKN060
     FM290300 00000KT P6SM SKC=



    US Dept of Commerce
    National Oceanic and Atmospheric Administration
    National Weather Service
    1325 East West Highway
    Silver Spring, MD 20910
    Page Author: NWS Internet Services Team
Disclaimer
Information Quality
Credits
Glossary
Privacy Policy
Freedom of Information Act (FOIA)
About Us
Career Opportunities